RYR1KM LEGE-EICK
Flight info
| Callsign | RYR1KM |
|---|---|
| Flight time | 1h 57m |
| Altitude | 36000 |
| Route | GEANT1A GEANT DCT ROCAN DCT TOU DCT AGN DCT SECHE DCT UVELI DCT CNA DCT MANAK UY110 TIRAV UT183 BAGAD DCT TERKU DCT DOLUR DCT EVCOR N160 LEDGO DCT ERTER ERTER1G |
| Aircraft | A320/M-SDE3FGHIRWY/LB1 |
Departure
| Time | 2026-04-25 12:43 |
|---|---|
| Airport | Girona-Costa Brava Airport (LEGE) |
Arrival
| Time | 2026-04-25 14:41 |
|---|---|
| Airport | Cork International Airport (EICK) |
| Time | Latitude | Longitude | Altitude | Speed | Heading |
|---|---|---|---|---|---|
| 2026-04-25 12:17 | 41.89808 | 2.76475 | 420 ft | 0 kts | 105° |
| 2026-04-25 12:38 | 41.89812 | 2.76457 | 412 ft | 3 kts | 105° |
| 2026-04-25 12:39 | 41.89816 | 2.76435 | 415 ft | 2 kts | 105° |
| 2026-04-25 12:39 | 41.89825 | 2.76416 | 409 ft | 2 kts | 172° |
| 2026-04-25 12:39 | 41.89831 | 2.76415 | 409 ft | 0 kts | 196° |
| 2026-04-25 12:41 | 41.89830 | 2.76407 | 409 ft | 2 kts | 256° |
| 2026-04-25 12:41 | 41.89848 | 2.76396 | 410 ft | 9 kts | 337° |
| 2026-04-25 12:41 | 41.89901 | 2.76286 | 420 ft | 16 kts | 287° |
| 2026-04-25 12:41 | 41.89846 | 2.76191 | 419 ft | 18 kts | 196° |
| 2026-04-25 12:42 | 41.89702 | 2.76137 | 409 ft | 24 kts | 195° |
| 2026-04-25 12:42 | 41.89601 | 2.76095 | 411 ft | 20 kts | 210° |
| 2026-04-25 12:42 | 41.89539 | 2.75871 | 406 ft | 20 kts | 318° |
| 2026-04-25 12:42 | 41.89726 | 2.75915 | 413 ft | 55 kts | 16° |
| 2026-04-25 12:43 | 41.90347 | 2.76152 | 431 ft | 127 kts | 15° |
| 2026-04-25 12:43 | 41.91380 | 2.76540 | 517 ft | 173 kts | 15° |
| 2026-04-25 12:43 | 41.93617 | 2.77397 | 2041 ft | 162 kts | 17° |
| 2026-04-25 12:44 | 41.94677 | 2.77813 | 2676 ft | 158 kts | 17° |
| 2026-04-25 12:44 | 41.95794 | 2.78242 | 3003 ft | 178 kts | 17° |
| 2026-04-25 12:44 | 41.98473 | 2.79262 | 3706 ft | 218 kts | 15° |
| 2026-04-25 12:45 | 41.99944 | 2.79822 | 4466 ft | 220 kts | 14° |
| 2026-04-25 12:45 | 42.01464 | 2.80001 | 5172 ft | 223 kts | 351° |
| 2026-04-25 12:45 | 42.03821 | 2.77409 | 6555 ft | 237 kts | 290° |
| 2026-04-25 12:46 | 42.04093 | 2.75197 | 7191 ft | 244 kts | 278° |
| 2026-04-25 12:46 | 42.04267 | 2.72818 | 7548 ft | 268 kts | 278° |
| 2026-04-25 12:46 | 42.04457 | 2.70260 | 8105 ft | 280 kts | 278° |
| 2026-04-25 12:46 | 42.04653 | 2.67632 | 8867 ft | 284 kts | 278° |
| 2026-04-25 12:47 | 42.04855 | 2.64978 | 9679 ft | 287 kts | 278° |
| 2026-04-25 12:47 | 42.05369 | 2.62406 | 10420 ft | 286 kts | 299° |
| 2026-04-25 12:47 | 42.06554 | 2.60293 | 11140 ft | 287 kts | 319° |
| 2026-04-25 12:47 | 42.08203 | 2.58610 | 11341 ft | 309 kts | 326° |
| 2026-04-25 12:48 | 42.10021 | 2.56895 | 11671 ft | 325 kts | 326° |
| 2026-04-25 12:48 | 42.11900 | 2.55145 | 12279 ft | 332 kts | 326° |
| 2026-04-25 12:48 | 42.13809 | 2.53360 | 12946 ft | 337 kts | 326° |
| 2026-04-25 12:48 | 42.15741 | 2.51542 | 13649 ft | 341 kts | 326° |
| 2026-04-25 12:49 | 42.17694 | 2.49694 | 14269 ft | 345 kts | 326° |
| 2026-04-25 12:49 | 42.19665 | 2.47816 | 14911 ft | 348 kts | 326° |
| 2026-04-25 12:49 | 42.21643 | 2.45892 | 15537 ft | 352 kts | 323° |
| 2026-04-25 12:49 | 42.23586 | 2.43841 | 16139 ft | 357 kts | 322° |
| 2026-04-25 12:50 | 42.25511 | 2.41695 | 16692 ft | 361 kts | 321° |
| 2026-04-25 12:50 | 42.27416 | 2.39520 | 17254 ft | 366 kts | 321° |
| 2026-04-25 12:50 | 42.29372 | 2.37282 | 17803 ft | 371 kts | 321° |
| 2026-04-25 12:50 | 42.31359 | 2.35025 | 18376 ft | 375 kts | 321° |
| 2026-04-25 12:51 | 42.33376 | 2.32752 | 18904 ft | 379 kts | 321° |
| 2026-04-25 12:51 | 42.35413 | 2.30469 | 19481 ft | 382 kts | 321° |
| 2026-04-25 12:51 | 42.37465 | 2.28180 | 20108 ft | 384 kts | 321° |
| 2026-04-25 12:51 | 42.39534 | 2.25878 | 20746 ft | 386 kts | 320° |
| 2026-04-25 12:52 | 42.41607 | 2.23571 | 21401 ft | 387 kts | 320° |
| 2026-04-25 12:52 | 42.43691 | 2.21248 | 22036 ft | 389 kts | 320° |
| 2026-04-25 12:52 | 42.45782 | 2.18911 | 22650 ft | 392 kts | 320° |
| 2026-04-25 12:52 | 42.47895 | 2.16549 | 23252 ft | 394 kts | 320° |
| 2026-04-25 12:53 | 42.50015 | 2.14177 | 23806 ft | 397 kts | 320° |
| 2026-04-25 12:53 | 42.52153 | 2.11778 | 24292 ft | 400 kts | 320° |
| 2026-04-25 12:53 | 42.54304 | 2.09357 | 24771 ft | 403 kts | 319° |
| 2026-04-25 12:53 | 42.56464 | 2.06922 | 25282 ft | 405 kts | 319° |
| 2026-04-25 12:54 | 42.58639 | 2.04470 | 25721 ft | 408 kts | 320° |
| 2026-04-25 12:54 | 42.60822 | 2.02010 | 26224 ft | 408 kts | 319° |
| 2026-04-25 12:54 | 42.63017 | 1.99536 | 26724 ft | 410 kts | 320° |
| 2026-04-25 12:54 | 42.65219 | 1.97055 | 27128 ft | 414 kts | 319° |
| 2026-04-25 12:55 | 42.67540 | 1.94726 | 27550 ft | 417 kts | 328° |
| 2026-04-25 12:55 | 42.69231 | 1.93470 | 27821 ft | 420 kts | 334° |
| 2026-04-25 12:55 | 42.72812 | 1.91254 | 28191 ft | 429 kts | 334° |
| 2026-04-25 12:55 | 42.75563 | 1.89555 | 28329 ft | 438 kts | 334° |
| 2026-04-25 12:56 | 42.78328 | 1.87839 | 28455 ft | 446 kts | 334° |
| 2026-04-25 12:56 | 42.81178 | 1.86064 | 28590 ft | 454 kts | 334° |
| 2026-04-25 12:56 | 42.84067 | 1.84261 | 28727 ft | 460 kts | 334° |
| 2026-04-25 12:56 | 42.86990 | 1.82433 | 28950 ft | 463 kts | 334° |
| 2026-04-25 12:57 | 42.89923 | 1.80595 | 29255 ft | 464 kts | 334° |
| 2026-04-25 12:57 | 42.92866 | 1.78748 | 29525 ft | 466 kts | 334° |
| 2026-04-25 12:57 | 42.95815 | 1.76896 | 29809 ft | 466 kts | 334° |
| 2026-04-25 12:57 | 42.98762 | 1.75050 | 30145 ft | 466 kts | 334° |
| 2026-04-25 12:58 | 43.01709 | 1.73205 | 30486 ft | 465 kts | 334° |
| 2026-04-25 12:58 | 43.04643 | 1.71364 | 30778 ft | 465 kts | 334° |
| 2026-04-25 12:58 | 43.07580 | 1.69517 | 31064 ft | 464 kts | 334° |
| 2026-04-25 12:58 | 43.10513 | 1.67670 | 31354 ft | 464 kts | 334° |
| 2026-04-25 12:59 | 43.13442 | 1.65823 | 31666 ft | 463 kts | 334° |
| 2026-04-25 12:59 | 43.16365 | 1.63977 | 31969 ft | 462 kts | 334° |
| 2026-04-25 12:59 | 43.19284 | 1.62130 | 32267 ft | 462 kts | 334° |
| 2026-04-25 12:59 | 43.22192 | 1.60291 | 32580 ft | 461 kts | 334° |
| 2026-04-25 13:00 | 43.25105 | 1.58448 | 32913 ft | 460 kts | 334° |
| 2026-04-25 13:00 | 43.27026 | 1.57230 | 33127 ft | 459 kts | 333° |
| 2026-04-25 13:00 | 43.30901 | 1.54766 | 33541 ft | 458 kts | 333° |
| 2026-04-25 13:00 | 43.33753 | 1.52948 | 33865 ft | 457 kts | 333° |
| 2026-04-25 13:01 | 43.36674 | 1.51086 | 34177 ft | 457 kts | 333° |
| 2026-04-25 13:01 | 43.39517 | 1.49274 | 34435 ft | 457 kts | 333° |
| 2026-04-25 13:01 | 43.42399 | 1.47434 | 34694 ft | 456 kts | 333° |
| 2026-04-25 13:01 | 43.45275 | 1.45596 | 34980 ft | 455 kts | 333° |
| 2026-04-25 13:02 | 43.48148 | 1.43760 | 35256 ft | 455 kts | 333° |
| 2026-04-25 13:02 | 43.51018 | 1.41928 | 35532 ft | 455 kts | 333° |
| 2026-04-25 13:02 | 43.53891 | 1.40093 | 35803 ft | 455 kts | 333° |
| 2026-04-25 13:02 | 43.56767 | 1.38258 | 36050 ft | 455 kts | 333° |
| 2026-04-25 13:03 | 43.59644 | 1.36420 | 36181 ft | 456 kts | 333° |
| 2026-04-25 13:03 | 43.62525 | 1.34577 | 36199 ft | 456 kts | 333° |
| 2026-04-25 13:03 | 43.67838 | 1.29957 | 36191 ft | 450 kts | 315° |
| 2026-04-25 13:04 | 43.71751 | 1.23319 | 36188 ft | 446 kts | 301° |
| 2026-04-25 13:04 | 43.75154 | 1.16155 | 36187 ft | 446 kts | 301° |
| 2026-04-25 13:05 | 43.78560 | 1.08981 | 36185 ft | 446 kts | 301° |
| 2026-04-25 13:05 | 43.81970 | 1.01794 | 36183 ft | 447 kts | 301° |
| 2026-04-25 13:06 | 43.85367 | 0.94598 | 36197 ft | 447 kts | 301° |
| 2026-04-25 13:06 | 43.89316 | 0.87954 | 36192 ft | 451 kts | 317° |
| 2026-04-25 13:07 | 43.91869 | 0.85419 | 36194 ft | 454 kts | 328° |
| 2026-04-25 13:07 | 43.94706 | 0.83477 | 36204 ft | 456 kts | 333° |
| 2026-04-25 13:07 | 44.00475 | 0.79788 | 36202 ft | 456 kts | 333° |
| 2026-04-25 13:08 | 44.06233 | 0.76064 | 36216 ft | 456 kts | 332° |
| 2026-04-25 13:08 | 44.11992 | 0.72329 | 36204 ft | 457 kts | 332° |
| 2026-04-25 13:09 | 44.17765 | 0.68580 | 36207 ft | 458 kts | 332° |
| 2026-04-25 13:09 | 44.23540 | 0.64821 | 36214 ft | 458 kts | 332° |
| 2026-04-25 13:10 | 44.29320 | 0.61051 | 36207 ft | 458 kts | 332° |
| 2026-04-25 13:10 | 44.35093 | 0.57275 | 36191 ft | 458 kts | 332° |
| 2026-04-25 13:11 | 44.40836 | 0.53511 | 36193 ft | 458 kts | 332° |
| 2026-04-25 13:11 | 44.46602 | 0.49720 | 36196 ft | 458 kts | 332° |
| 2026-04-25 13:12 | 44.52357 | 0.45912 | 36191 ft | 457 kts | 332° |
| 2026-04-25 13:12 | 44.57147 | 0.42738 | 36189 ft | 458 kts | 332° |
| 2026-04-25 13:13 | 44.63864 | 0.38262 | 36192 ft | 458 kts | 332° |
| 2026-04-25 13:13 | 44.69626 | 0.34410 | 36187 ft | 458 kts | 332° |
| 2026-04-25 13:14 | 44.75388 | 0.30559 | 36183 ft | 459 kts | 332° |
| 2026-04-25 13:14 | 44.81156 | 0.26700 | 36182 ft | 459 kts | 332° |
| 2026-04-25 13:15 | 44.86924 | 0.22823 | 36183 ft | 459 kts | 332° |
| 2026-04-25 13:15 | 44.92690 | 0.18934 | 36185 ft | 459 kts | 332° |
| 2026-04-25 13:16 | 44.98419 | 0.15067 | 36185 ft | 459 kts | 332° |
| 2026-04-25 13:16 | 45.04190 | 0.11158 | 36187 ft | 460 kts | 331° |
| 2026-04-25 13:17 | 45.09965 | 0.07253 | 36184 ft | 460 kts | 331° |
| 2026-04-25 13:17 | 45.15745 | 0.03335 | 36183 ft | 460 kts | 331° |
| 2026-04-25 13:18 | 45.21515 | -0.00600 | 36194 ft | 460 kts | 331° |
| 2026-04-25 13:18 | 45.27287 | -0.04539 | 36185 ft | 460 kts | 331° |
| 2026-04-25 13:19 | 45.33061 | -0.08489 | 36181 ft | 461 kts | 331° |
| 2026-04-25 13:19 | 45.36884 | -0.11109 | 36180 ft | 461 kts | 331° |
| 2026-04-25 13:20 | 45.44608 | -0.16418 | 36183 ft | 461 kts | 331° |
| 2026-04-25 13:20 | 45.50347 | -0.20370 | 36183 ft | 461 kts | 331° |
| 2026-04-25 13:21 | 45.56125 | -0.24360 | 36185 ft | 461 kts | 331° |
| 2026-04-25 13:21 | 45.61905 | -0.28359 | 36190 ft | 461 kts | 330° |
| 2026-04-25 13:22 | 45.67458 | -0.32842 | 36185 ft | 456 kts | 319° |
| 2026-04-25 13:23 | 45.74923 | -0.41259 | 36178 ft | 455 kts | 318° |
| 2026-04-25 13:23 | 45.79898 | -0.46871 | 36177 ft | 455 kts | 318° |
| 2026-04-25 13:24 | 45.84877 | -0.52509 | 36178 ft | 456 kts | 318° |
| 2026-04-25 13:24 | 45.89852 | -0.58156 | 36175 ft | 456 kts | 318° |
| 2026-04-25 13:25 | 45.94824 | -0.63807 | 36171 ft | 456 kts | 318° |
| 2026-04-25 13:25 | 45.99760 | -0.69430 | 36178 ft | 456 kts | 318° |
| 2026-04-25 13:26 | 46.03919 | -0.74180 | 36175 ft | 456 kts | 318° |
| 2026-04-25 13:26 | 46.09685 | -0.80791 | 36184 ft | 456 kts | 318° |
| 2026-04-25 13:27 | 46.13845 | -0.85567 | 36175 ft | 456 kts | 318° |
| 2026-04-25 13:27 | 46.18785 | -0.91252 | 36178 ft | 457 kts | 318° |
| 2026-04-25 13:28 | 46.23745 | -0.96981 | 36186 ft | 457 kts | 318° |
| 2026-04-25 13:28 | 46.28715 | -1.02724 | 36184 ft | 457 kts | 318° |
| 2026-04-25 13:29 | 46.33688 | -1.08478 | 36182 ft | 458 kts | 318° |
| 2026-04-25 13:29 | 46.38653 | -1.14249 | 36187 ft | 458 kts | 318° |
| 2026-04-25 13:30 | 46.46103 | -1.22939 | 36174 ft | 458 kts | 318° |
| 2026-04-25 13:31 | 46.53558 | -1.31642 | 36168 ft | 459 kts | 318° |
| 2026-04-25 13:31 | 46.58525 | -1.37470 | 36167 ft | 459 kts | 318° |
| 2026-04-25 13:32 | 46.63078 | -1.43903 | 36162 ft | 456 kts | 311° |
| 2026-04-25 13:32 | 46.67477 | -1.50560 | 36169 ft | 456 kts | 311° |
| 2026-04-25 13:33 | 46.71882 | -1.57222 | 36164 ft | 456 kts | 311° |
| 2026-04-25 13:33 | 46.76244 | -1.63852 | 36154 ft | 456 kts | 311° |
| 2026-04-25 13:34 | 46.80621 | -1.70540 | 36163 ft | 455 kts | 311° |
| 2026-04-25 13:34 | 46.84992 | -1.77236 | 36161 ft | 455 kts | 311° |
| 2026-04-25 13:35 | 46.89356 | -1.83924 | 36172 ft | 454 kts | 311° |
| 2026-04-25 13:35 | 46.93713 | -1.90617 | 36171 ft | 454 kts | 311° |
| 2026-04-25 13:36 | 46.98066 | -1.97312 | 36174 ft | 454 kts | 311° |
| 2026-04-25 13:36 | 47.02420 | -2.04011 | 36171 ft | 454 kts | 312° |
| 2026-04-25 13:37 | 47.06845 | -2.10598 | 36166 ft | 452 kts | 314° |
| 2026-04-25 13:37 | 47.11293 | -2.17120 | 36167 ft | 451 kts | 314° |
| 2026-04-25 13:38 | 47.15706 | -2.23653 | 36168 ft | 450 kts | 313° |
| 2026-04-25 13:38 | 47.20053 | -2.30171 | 36167 ft | 449 kts | 313° |
| 2026-04-25 13:39 | 47.24312 | -2.36571 | 36167 ft | 449 kts | 313° |
| 2026-04-25 13:39 | 47.28681 | -2.43133 | 36166 ft | 448 kts | 313° |
| 2026-04-25 13:40 | 47.33043 | -2.49696 | 36164 ft | 448 kts | 314° |
| 2026-04-25 13:40 | 47.37389 | -2.56255 | 36181 ft | 447 kts | 313° |
| 2026-04-25 13:41 | 47.41724 | -2.62808 | 36174 ft | 446 kts | 313° |
| 2026-04-25 13:41 | 47.46046 | -2.69369 | 36178 ft | 445 kts | 313° |
| 2026-04-25 13:42 | 47.50350 | -2.75935 | 36171 ft | 444 kts | 313° |
| 2026-04-25 13:42 | 47.54657 | -2.82493 | 36170 ft | 444 kts | 313° |
| 2026-04-25 13:43 | 47.58954 | -2.89069 | 36179 ft | 444 kts | 313° |
| 2026-04-25 13:43 | 47.63143 | -2.95779 | 36173 ft | 443 kts | 311° |
| 2026-04-25 13:44 | 47.67258 | -3.02582 | 36177 ft | 443 kts | 311° |
| 2026-04-25 13:44 | 47.71372 | -3.09378 | 36166 ft | 443 kts | 311° |
| 2026-04-25 13:45 | 47.75456 | -3.16071 | 36175 ft | 443 kts | 311° |
| 2026-04-25 13:45 | 47.79586 | -3.22838 | 36177 ft | 443 kts | 311° |
| 2026-04-25 13:46 | 47.83708 | -3.29633 | 36170 ft | 442 kts | 311° |
| 2026-04-25 13:46 | 47.87831 | -3.36462 | 36170 ft | 442 kts | 311° |
| 2026-04-25 13:47 | 47.91945 | -3.43282 | 36175 ft | 442 kts | 311° |
| 2026-04-25 13:47 | 47.96052 | -3.50088 | 36176 ft | 441 kts | 311° |
| 2026-04-25 13:48 | 47.99458 | -3.55751 | 36181 ft | 440 kts | 310° |
| 2026-04-25 13:48 | 48.04614 | -3.63212 | 36174 ft | 442 kts | 324° |
| 2026-04-25 13:49 | 48.09789 | -3.68171 | 36173 ft | 442 kts | 326° |
| 2026-04-25 13:49 | 48.14964 | -3.73131 | 36171 ft | 442 kts | 325° |
| 2026-04-25 13:50 | 48.20136 | -3.78109 | 36183 ft | 441 kts | 325° |
| 2026-04-25 13:50 | 48.25260 | -3.83054 | 36182 ft | 441 kts | 325° |
| 2026-04-25 13:51 | 48.30450 | -3.88083 | 36172 ft | 441 kts | 325° |
| 2026-04-25 13:51 | 48.35604 | -3.93080 | 36182 ft | 440 kts | 325° |
| 2026-04-25 13:52 | 48.40718 | -3.98055 | 36200 ft | 440 kts | 325° |
| 2026-04-25 13:52 | 48.45852 | -4.03058 | 36206 ft | 440 kts | 325° |
| 2026-04-25 13:53 | 48.50984 | -4.08080 | 36206 ft | 439 kts | 325° |
| 2026-04-25 13:53 | 48.56111 | -4.13103 | 36188 ft | 439 kts | 325° |
| 2026-04-25 13:54 | 48.61234 | -4.18134 | 36199 ft | 439 kts | 324° |
| 2026-04-25 13:54 | 48.66356 | -4.23177 | 36193 ft | 439 kts | 324° |
| 2026-04-25 13:55 | 48.70830 | -4.27593 | 36193 ft | 439 kts | 324° |
| 2026-04-25 13:55 | 48.75001 | -4.31720 | 36196 ft | 439 kts | 324° |
| 2026-04-25 13:56 | 48.79134 | -4.35815 | 36196 ft | 439 kts | 324° |
| 2026-04-25 13:56 | 48.82281 | -4.38938 | 36197 ft | 439 kts | 324° |
| 2026-04-25 13:57 | 48.85771 | -4.42408 | 36204 ft | 438 kts | 324° |
| 2026-04-25 13:57 | 48.88285 | -4.44906 | 36211 ft | 437 kts | 324° |
| 2026-04-25 13:58 | 48.90440 | -4.47049 | 36212 ft | 437 kts | 324° |
| 2026-04-25 13:58 | 48.93616 | -4.50222 | 36211 ft | 436 kts | 324° |
| 2026-04-25 13:59 | 48.96925 | -4.53533 | 36210 ft | 436 kts | 324° |
| 2026-04-25 13:59 | 48.99429 | -4.56041 | 36223 ft | 436 kts | 324° |
| 2026-04-25 14:00 | 49.02858 | -4.59473 | 36218 ft | 436 kts | 324° |
| 2026-04-25 14:00 | 49.04778 | -4.61398 | 36217 ft | 436 kts | 324° |
| 2026-04-25 14:01 | 49.06903 | -4.63529 | 36219 ft | 436 kts | 324° |
| 2026-04-25 14:01 | 49.11321 | -4.67973 | 36214 ft | 436 kts | 324° |
| 2026-04-25 14:02 | 49.16280 | -4.72970 | 36213 ft | 436 kts | 324° |
| 2026-04-25 14:02 | 49.20944 | -4.77693 | 36226 ft | 435 kts | 324° |
| 2026-04-25 14:03 | 49.25975 | -4.82793 | 36220 ft | 436 kts | 324° |
| 2026-04-25 14:03 | 49.30985 | -4.87875 | 36215 ft | 436 kts | 324° |
| 2026-04-25 14:04 | 49.35895 | -4.92884 | 36212 ft | 436 kts | 324° |
| 2026-04-25 14:04 | 49.39122 | -4.96179 | 36212 ft | 436 kts | 324° |
| 2026-04-25 14:05 | 49.42397 | -4.99524 | 36223 ft | 436 kts | 323° |
| 2026-04-25 14:05 | 49.45997 | -5.03205 | 36223 ft | 436 kts | 323° |
| 2026-04-25 14:06 | 49.50582 | -5.08613 | 36219 ft | 434 kts | 316° |
| 2026-04-25 14:06 | 49.55092 | -5.14776 | 36219 ft | 434 kts | 316° |
| 2026-04-25 14:07 | 49.59619 | -5.20949 | 36219 ft | 434 kts | 316° |
| 2026-04-25 14:07 | 49.64113 | -5.27080 | 36234 ft | 434 kts | 316° |
| 2026-04-25 14:08 | 49.68630 | -5.33270 | 36230 ft | 434 kts | 316° |
| 2026-04-25 14:08 | 49.73145 | -5.39468 | 36234 ft | 434 kts | 316° |
| 2026-04-25 14:09 | 49.77651 | -5.45677 | 36231 ft | 433 kts | 315° |
| 2026-04-25 14:09 | 49.82144 | -5.51885 | 36231 ft | 432 kts | 315° |
| 2026-04-25 14:10 | 49.86631 | -5.58098 | 36242 ft | 432 kts | 315° |
| 2026-04-25 14:10 | 49.91110 | -5.64314 | 36233 ft | 432 kts | 315° |
| 2026-04-25 14:11 | 49.95588 | -5.70546 | 36209 ft | 432 kts | 315° |
| 2026-04-25 14:11 | 49.99305 | -5.75733 | 36208 ft | 432 kts | 315° |
| 2026-04-25 14:12 | 50.03776 | -5.81992 | 36212 ft | 432 kts | 315° |
| 2026-04-25 14:12 | 50.08242 | -5.88272 | 36218 ft | 433 kts | 315° |
| 2026-04-25 14:13 | 50.12716 | -5.94563 | 36217 ft | 433 kts | 315° |
| 2026-04-25 14:13 | 50.17190 | -6.00862 | 36220 ft | 433 kts | 314° |
| 2026-04-25 14:14 | 50.21656 | -6.07175 | 36220 ft | 433 kts | 314° |
| 2026-04-25 14:14 | 50.26123 | -6.13500 | 36239 ft | 434 kts | 314° |
| 2026-04-25 14:15 | 50.30593 | -6.19851 | 36236 ft | 434 kts | 314° |
| 2026-04-25 14:15 | 50.35057 | -6.26219 | 36234 ft | 434 kts | 314° |
| 2026-04-25 14:16 | 50.39519 | -6.32596 | 36235 ft | 434 kts | 314° |
| 2026-04-25 14:16 | 50.43978 | -6.38985 | 36232 ft | 434 kts | 314° |
| 2026-04-25 14:17 | 50.48435 | -6.45383 | 36247 ft | 434 kts | 314° |
| 2026-04-25 14:17 | 50.52885 | -6.51791 | 36239 ft | 434 kts | 314° |
| 2026-04-25 14:18 | 50.57338 | -6.58224 | 36236 ft | 435 kts | 314° |
| 2026-04-25 14:18 | 50.61789 | -6.64664 | 36234 ft | 435 kts | 314° |
| 2026-04-25 14:19 | 50.66213 | -6.71083 | 36102 ft | 436 kts | 314° |
| 2026-04-25 14:19 | 50.68466 | -6.74359 | 35820 ft | 434 kts | 313° |
| 2026-04-25 14:19 | 50.70686 | -6.77597 | 35567 ft | 435 kts | 313° |
| 2026-04-25 14:19 | 50.72907 | -6.80843 | 35314 ft | 435 kts | 313° |
| 2026-04-25 14:20 | 50.75096 | -6.84052 | 35072 ft | 435 kts | 313° |
| 2026-04-25 14:20 | 50.76597 | -6.86252 | 34908 ft | 435 kts | 313° |
| 2026-04-25 14:20 | 50.79540 | -6.90563 | 34424 ft | 436 kts | 313° |
| 2026-04-25 14:20 | 50.81766 | -6.93824 | 33899 ft | 436 kts | 313° |
| 2026-04-25 14:21 | 50.83990 | -6.97092 | 33418 ft | 437 kts | 313° |
| 2026-04-25 14:21 | 50.86218 | -7.00370 | 32934 ft | 438 kts | 313° |
| 2026-04-25 14:21 | 50.88456 | -7.03665 | 32447 ft | 440 kts | 313° |
| 2026-04-25 14:21 | 50.90703 | -7.06976 | 31954 ft | 442 kts | 313° |
| 2026-04-25 14:22 | 50.92961 | -7.10310 | 31457 ft | 446 kts | 313° |
| 2026-04-25 14:22 | 50.95236 | -7.13672 | 30941 ft | 448 kts | 313° |
| 2026-04-25 14:22 | 50.97524 | -7.17063 | 30448 ft | 451 kts | 313° |
| 2026-04-25 14:22 | 50.99817 | -7.20476 | 29898 ft | 453 kts | 313° |
| 2026-04-25 14:23 | 51.02121 | -7.23916 | 29426 ft | 455 kts | 313° |
| 2026-04-25 14:23 | 51.04428 | -7.27367 | 28937 ft | 457 kts | 313° |
| 2026-04-25 14:23 | 51.06743 | -7.30835 | 28469 ft | 457 kts | 313° |
| 2026-04-25 14:23 | 51.09054 | -7.34296 | 27991 ft | 459 kts | 313° |
| 2026-04-25 14:24 | 51.11395 | -7.37807 | 27279 ft | 462 kts | 313° |
| 2026-04-25 14:24 | 51.13740 | -7.41326 | 26044 ft | 464 kts | 314° |
| 2026-04-25 14:24 | 51.16099 | -7.44878 | 25015 ft | 471 kts | 314° |
| 2026-04-25 14:24 | 51.18484 | -7.48482 | 24559 ft | 474 kts | 314° |
| 2026-04-25 14:25 | 51.20883 | -7.52111 | 24343 ft | 476 kts | 314° |
| 2026-04-25 14:25 | 51.23282 | -7.55738 | 24164 ft | 475 kts | 314° |
| 2026-04-25 14:25 | 51.25684 | -7.59365 | 24218 ft | 476 kts | 314° |
| 2026-04-25 14:25 | 51.27312 | -7.61821 | 24214 ft | 476 kts | 314° |
| 2026-04-25 14:26 | 51.30497 | -7.66634 | 24218 ft | 477 kts | 314° |
| 2026-04-25 14:26 | 51.32902 | -7.70287 | 24221 ft | 477 kts | 314° |
| 2026-04-25 14:26 | 51.35309 | -7.73950 | 24208 ft | 477 kts | 314° |
| 2026-04-25 14:26 | 51.37713 | -7.77621 | 24140 ft | 478 kts | 314° |
| 2026-04-25 14:27 | 51.40104 | -7.81276 | 23035 ft | 471 kts | 314° |
| 2026-04-25 14:27 | 51.42457 | -7.84874 | 21718 ft | 464 kts | 314° |
| 2026-04-25 14:27 | 51.44772 | -7.88419 | 20475 ft | 457 kts | 314° |
| 2026-04-25 14:27 | 51.47052 | -7.91917 | 19303 ft | 451 kts | 313° |
| 2026-04-25 14:28 | 51.49308 | -7.95386 | 18539 ft | 449 kts | 313° |
| 2026-04-25 14:28 | 51.51548 | -7.98834 | 17849 ft | 444 kts | 313° |
| 2026-04-25 14:28 | 51.53771 | -8.02258 | 17324 ft | 441 kts | 313° |
| 2026-04-25 14:28 | 51.56053 | -8.05518 | 16769 ft | 439 kts | 322° |
| 2026-04-25 14:29 | 51.58734 | -8.07846 | 16238 ft | 439 kts | 333° |
| 2026-04-25 14:29 | 51.61513 | -8.09851 | 15695 ft | 436 kts | 334° |
| 2026-04-25 14:29 | 51.64281 | -8.11811 | 15162 ft | 433 kts | 334° |
| 2026-04-25 14:29 | 51.67031 | -8.13743 | 14630 ft | 429 kts | 334° |
| 2026-04-25 14:30 | 51.69742 | -8.15653 | 14118 ft | 418 kts | 334° |
| 2026-04-25 14:30 | 51.74644 | -8.19117 | 13619 ft | 356 kts | 334° |
| 2026-04-25 14:30 | 51.76844 | -8.20683 | 13191 ft | 338 kts | 333° |
| 2026-04-25 14:31 | 51.78970 | -8.22209 | 12470 ft | 332 kts | 333° |
| 2026-04-25 14:31 | 51.81059 | -8.23716 | 11866 ft | 327 kts | 333° |
| 2026-04-25 14:31 | 51.83131 | -8.25216 | 11443 ft | 326 kts | 333° |
| 2026-04-25 14:31 | 51.85199 | -8.26711 | 11034 ft | 325 kts | 333° |
| 2026-04-25 14:32 | 51.87258 | -8.28199 | 10648 ft | 323 kts | 334° |
| 2026-04-25 14:32 | 51.89308 | -8.29677 | 10270 ft | 321 kts | 334° |
| 2026-04-25 14:32 | 51.91319 | -8.31122 | 10167 ft | 310 kts | 334° |
| 2026-04-25 14:32 | 51.93253 | -8.32513 | 10188 ft | 302 kts | 333° |
| 2026-04-25 14:33 | 51.95166 | -8.33893 | 10184 ft | 298 kts | 333° |
| 2026-04-25 14:33 | 51.97031 | -8.35238 | 9781 ft | 294 kts | 333° |
| 2026-04-25 14:33 | 51.98911 | -8.36598 | 8957 ft | 298 kts | 334° |
| 2026-04-25 14:33 | 52.00819 | -8.37981 | 8136 ft | 301 kts | 334° |
| 2026-04-25 14:34 | 52.02722 | -8.39364 | 7587 ft | 295 kts | 334° |
| 2026-04-25 14:34 | 52.04563 | -8.40699 | 7216 ft | 286 kts | 334° |
| 2026-04-25 14:34 | 52.06331 | -8.42134 | 6771 ft | 282 kts | 322° |
| 2026-04-25 14:34 | 52.07672 | -8.44348 | 6235 ft | 272 kts | 301° |
| 2026-04-25 14:35 | 52.08298 | -8.47172 | 5654 ft | 265 kts | 272° |
| 2026-04-25 14:35 | 52.08051 | -8.50080 | 5150 ft | 256 kts | 251° |
| 2026-04-25 14:35 | 52.07331 | -8.52587 | 5026 ft | 239 kts | 234° |
| 2026-04-25 14:35 | 52.06391 | -8.54746 | 4906 ft | 229 kts | 234° |
| 2026-04-25 14:36 | 52.05475 | -8.56807 | 4741 ft | 222 kts | 229° |
| 2026-04-25 14:36 | 52.04291 | -8.58439 | 4362 ft | 225 kts | 208° |
| 2026-04-25 14:36 | 52.02850 | -8.59266 | 4146 ft | 221 kts | 189° |
| 2026-04-25 14:36 | 52.01330 | -8.59238 | 3896 ft | 219 kts | 169° |
| 2026-04-25 14:37 | 51.99904 | -8.58491 | 3621 ft | 210 kts | 161° |
| 2026-04-25 14:37 | 51.98577 | -8.57695 | 3376 ft | 197 kts | 161° |
| 2026-04-25 14:37 | 51.97331 | -8.56951 | 3105 ft | 185 kts | 161° |
| 2026-04-25 14:37 | 51.96161 | -8.56254 | 2852 ft | 171 kts | 161° |
| 2026-04-25 14:38 | 51.95112 | -8.55629 | 2639 ft | 154 kts | 161° |
| 2026-04-25 14:38 | 51.94132 | -8.55047 | 2443 ft | 147 kts | 161° |
| 2026-04-25 14:38 | 51.93186 | -8.54485 | 2241 ft | 143 kts | 161° |
| 2026-04-25 14:38 | 51.92257 | -8.53934 | 2052 ft | 141 kts | 162° |
| 2026-04-25 14:39 | 51.91335 | -8.53386 | 1862 ft | 141 kts | 161° |
| 2026-04-25 14:39 | 51.90421 | -8.52843 | 1668 ft | 140 kts | 161° |
| 2026-04-25 14:39 | 51.89508 | -8.52302 | 1479 ft | 139 kts | 162° |
| 2026-04-25 14:39 | 51.88607 | -8.51767 | 1284 ft | 137 kts | 163° |
| 2026-04-25 14:40 | 51.87722 | -8.51242 | 1104 ft | 133 kts | 161° |
| 2026-04-25 14:40 | 51.86858 | -8.50730 | 921 ft | 132 kts | 161° |
| 2026-04-25 14:40 | 51.85999 | -8.50221 | 742 ft | 132 kts | 161° |
| 2026-04-25 14:40 | 51.85144 | -8.49714 | 565 ft | 130 kts | 160° |
| 2026-04-25 14:41 | 51.84308 | -8.49222 | 481 ft | 119 kts | 161° |
| 2026-04-25 14:41 | 51.83758 | -8.48887 | 468 ft | 42 kts | 160° |
| 2026-04-25 14:41 | 51.83653 | -8.48814 | 468 ft | 3 kts | 211° |
| 2026-04-25 14:41 | 51.83691 | -8.48850 | 467 ft | 19 kts | 340° |
| 2026-04-25 14:42 | 51.83915 | -8.48981 | 469 ft | 45 kts | 340° |
| 2026-04-25 14:42 | 51.84016 | -8.49041 | 473 ft | 46 kts | 340° |
| 2026-04-25 14:42 | 51.84477 | -8.49313 | 484 ft | 34 kts | 340° |
| 2026-04-25 14:42 | 51.84668 | -8.49425 | 481 ft | 20 kts | 341° |
| 2026-04-25 14:43 | 51.84778 | -8.49414 | 492 ft | 15 kts | 61° |
| 2026-04-25 14:43 | 51.84805 | -8.49268 | 499 ft | 11 kts | 103° |
| 2026-04-25 14:43 | 51.84768 | -8.49180 | 503 ft | 11 kts | 96° |
| 2026-04-25 14:43 | 51.84797 | -8.49045 | 503 ft | 5 kts | 70° |
| 2026-04-25 14:44 | 51.84803 | -8.49018 | 503 ft | 0 kts | 70° |